Time;durP1;ratioP1;P1;durP2;ratioP2;P2;SDS_P1;SDS_P2;PMS_P1;PMS_P2;Temp;Humidity;BMP_temperature;BMP_pressure;BME280_temperature;BME280_humidity;BME280_pressure;Samples;Min_cycle;Max_cycle;Signal;HPM_P1;HPM_P2
2022/03/08 00:02:19;;;;;;;13.10;8.65;;;0.90;99.90;;;;;;4667094;28;10000576;-73
2022/03/08 00:04:45;;;;;;;24.85;10.52;;;0.90;99.90;;;;;;5023536;28;20108;-73
2022/03/08 00:07:12;;;;;;;68.68;23.83;;;0.70;99.90;;;;;;5036852;28;20037;-73
2022/03/08 00:09:38;;;;;;;55.13;17.83;;;0.70;99.90;;;;;;5029735;28;20092;-73
2022/03/08 00:12:05;;;;;;;31.98;13.93;;;0.50;99.90;;;;;;5018584;28;20001;-73
2022/03/08 00:14:32;;;;;;;31.02;14.20;;;0.30;99.90;;;;;;5013433;28;20653;-72
2022/03/08 00:16:58;;;;;;;30.83;13.68;;;0.10;99.90;;;;;;5033532;28;20025;-73
2022/03/08 00:19:24;;;;;;;53.53;18.50;;;0.00;99.90;;;;;;5027758;28;20049;-73
2022/03/08 00:21:50;;;;;;;46.50;18.08;;;-0.20;99.90;;;;;;5041774;28;20017;-73
2022/03/08 00:24:16;;;;;;;25.73;11.85;;;-0.20;99.90;;;;;;5025545;28;20034;-73
2022/03/08 00:26:42;;;;;;;22.42;11.18;;;-0.30;99.90;;;;;;5019314;28;20091;-72
2022/03/08 00:29:08;;;;;;;49.60;16.90;;;-0.30;99.90;;;;;;5030814;28;20151;-73
2022/03/08 00:31:34;;;;;;;26.75;12.45;;;-0.30;99.90;;;;;;5039464;28;20112;-73
2022/03/08 00:34:00;;;;;;;20.10;9.55;;;-0.30;99.90;;;;;;5020526;28;20061;-73
2022/03/08 00:36:26;;;;;;;14.73;9.10;;;-0.30;99.90;;;;;;5035402;28;20025;-73
2022/03/08 00:38:52;;;;;;;12.85;8.52;;;-0.30;99.90;;;;;;5043741;28;20036;-73
2022/03/08 00:41:18;;;;;;;11.20;7.93;;;-0.40;99.90;;;;;;5036794;28;20044;-73
2022/03/08 00:43:44;;;;;;;11.77;8.38;;;-0.50;99.90;;;;;;5023373;28;20633;-73
2022/03/08 00:46:09;;;;;;;11.02;8.30;;;-0.50;99.90;;;;;;5016079;28;20043;-74
2022/03/08 00:48:35;;;;;;;11.70;8.30;;;-0.50;99.90;;;;;;5023606;28;20061;-73
2022/03/08 00:51:01;;;;;;;11.23;8.10;;;-0.60;99.90;;;;;;5033482;28;20033;-74
2022/03/08 00:53:26;;;;;;;10.65;7.40;;;-0.60;99.90;;;;;;5020724;28;20462;-73
2022/03/08 00:55:52;;;;;;;10.50;7.57;;;-0.60;99.90;;;;;;5011628;28;21771;-73
2022/03/08 00:58:17;;;;;;;10.85;7.40;;;-0.60;99.90;;;;;;5032232;28;20170;-73
2022/03/08 01:00:43;;;;;;;11.65;7.85;;;-0.70;99.90;;;;;;5026123;28;20040;-73
2022/03/08 01:03:09;;;;;;;13.73;8.07;;;-0.70;99.90;;;;;;5022874;28;20041;-73
2022/03/08 01:05:35;;;;;;;11.50;8.52;;;-0.60;99.90;;;;;;5023278;28;20022;-73
2022/03/08 01:08:03;;;;;;;11.73;7.95;;;-0.60;99.90;;;;;;5018950;28;20029;-73
2022/03/08 01:10:29;;;;;;;10.20;7.90;;;-0.50;99.90;;;;;;5018171;28;20037;-73
2022/03/08 01:12:55;;;;;;;11.25;8.15;;;-0.50;99.90;;;;;;5018323;28;20113;-73
2022/03/08 01:15:24;;;;;;;12.20;9.02;;;-0.70;99.90;;;;;;5010604;28;20037;-73
2022/03/08 01:17:50;;;;;;;14.73;9.27;;;-0.60;99.90;;;;;;5018669;28;20083;-73
2022/03/08 01:20:16;;;;;;;12.25;8.45;;;-0.70;99.90;;;;;;5025628;28;20401;-73
2022/03/08 01:22:42;;;;;;;11.70;8.25;;;-0.80;99.90;;;;;;5011302;28;20045;-73
2022/03/08 01:25:09;;;;;;;11.82;8.45;;;-0.80;99.90;;;;;;5022565;28;20037;-73
2022/03/08 01:27:35;;;;;;;12.82;8.93;;;-0.80;99.90;;;;;;5030030;28;20136;-73
2022/03/08 01:30:03;;;;;;;33.83;16.77;;;-0.80;99.90;;;;;;5020954;28;20056;-73
2022/03/08 01:32:29;;;;;;;32.30;17.00;;;-0.90;99.90;;;;;;5019759;28;20033;-73
2022/03/08 01:34:54;;;;;;;23.23;12.95;;;-0.90;99.90;;;;;;5016329;28;20425;-73
2022/03/08 01:37:20;;;;;;;19.13;11.00;;;-1.00;99.90;;;;;;5023296;28;20093;-73
2022/03/08 01:39:46;;;;;;;17.05;10.60;;;-1.00;99.90;;;;;;5026157;28;20182;-73
2022/03/08 01:42:14;;;;;;;15.60;9.68;;;-0.80;99.90;;;;;;5025446;28;20052;-73
2022/03/08 01:44:44;;;;;;;12.68;9.00;;;-1.00;99.90;;;;;;5023340;28;20033;-73
2022/03/08 01:47:18;;;;;;;11.98;8.77;;;-0.60;99.90;;;;;;5024631;28;20032;-74
2022/03/08 01:49:45;;;;;;;13.15;9.05;;;-0.80;99.90;;;;;;5020793;28;20057;-73
2022/03/08 01:52:11;;;;;;;15.95;9.38;;;-0.80;99.90;;;;;;5019433;28;20030;-74
2022/03/08 01:54:37;;;;;;;13.75;9.30;;;-0.60;99.90;;;;;;5022332;28;20078;-74
2022/03/08 01:57:03;;;;;;;12.93;9.05;;;-0.40;99.90;;;;;;5028273;28;20030;-74
2022/03/08 01:59:29;;;;;;;12.45;8.68;;;-0.20;99.90;;;;;;5032642;28;20453;-74
2022/03/08 02:01:55;;;;;;;13.18;9.65;;;0.00;99.90;;;;;;5023416;28;20108;-74
2022/03/08 02:04:21;;;;;;;12.73;8.60;;;0.20;99.90;;;;;;5021812;28;20133;-74
2022/03/08 02:06:46;;;;;;;12.52;8.50;;;0.30;99.90;;;;;;5029394;28;20084;-73
2022/03/08 02:09:12;;;;;;;13.90;8.98;;;0.30;99.90;;;;;;5014093;28;20550;-74
2022/03/08 02:11:38;;;;;;;11.93;8.98;;;0.20;99.90;;;;;;5008966;28;20030;-74
2022/03/08 02:14:04;;;;;;;13.32;9.10;;;0.20;99.90;;;;;;5011377;28;20037;-74
2022/03/08 02:16:30;;;;;;;11.40;8.20;;;0.20;99.90;;;;;;5029964;28;20397;-74
2022/03/08 02:18:55;;;;;;;12.20;8.80;;;0.10;99.90;;;;;;5017208;28;20511;-74
2022/03/08 02:21:21;;;;;;;12.68;8.90;;;0.20;99.90;;;;;;5023462;28;20025;-74
2022/03/08 02:23:47;;;;;;;12.77;9.07;;;0.20;99.90;;;;;;5015515;28;20256;-73
2022/03/08 02:26:13;;;;;;;10.95;8.65;;;0.20;99.90;;;;;;5019012;28;20029;-73
2022/03/08 02:28:40;;;;;;;12.48;8.70;;;0.20;99.90;;;;;;5025380;28;20164;-73
2022/03/08 02:31:06;;;;;;;12.77;8.93;;;0.10;99.90;;;;;;5018808;28;20054;-73
2022/03/08 02:33:31;;;;;;;16.42;9.70;;;0.10;99.90;;;;;;5019481;28;20076;-74
2022/03/08 02:35:57;;;;;;;14.82;9.65;;;0.20;99.90;;;;;;5030507;28;20036;-73
2022/03/08 02:38:23;;;;;;;14.10;9.70;;;0.20;99.90;;;;;;5008127;28;20049;-73
2022/03/08 02:40:48;;;;;;;15.30;9.75;;;0.30;99.90;;;;;;5013492;28;20025;-73
2022/03/08 02:43:14;;;;;;;15.15;10.00;;;0.30;99.90;;;;;;5021354;28;20030;-73
2022/03/08 02:45:40;;;;;;;18.38;10.50;;;0.40;99.90;;;;;;5018061;28;20370;-73
2022/03/08 02:48:07;;;;;;;18.35;11.00;;;0.30;99.90;;;;;;5013905;28;20034;-73
2022/03/08 02:50:33;;;;;;;18.13;11.55;;;0.30;99.90;;;;;;5020471;28;20017;-73
2022/03/08 02:52:59;;;;;;;18.58;11.25;;;0.40;99.90;;;;;;5034046;28;20030;-73
2022/03/08 02:55:28;;;;;;;15.98;10.95;;;0.30;99.90;;;;;;5021652;28;20028;-73
2022/03/08 02:57:55;;;;;;;16.42;11.02;;;0.20;99.90;;;;;;5026248;28;20049;-73
2022/03/08 03:00:22;;;;;;;15.38;10.32;;;0.00;99.90;;;;;;5014462;28;20048;-74
2022/03/08 03:02:48;;;;;;;15.80;10.68;;;-0.40;99.90;;;;;;5029127;28;20051;-73
2022/03/08 03:05:14;;;;;;;18.98;11.65;;;-0.50;99.90;;;;;;5013830;28;20524;-73
2022/03/08 03:07:41;;;;;;;19.95;12.60;;;-0.70;99.90;;;;;;5018472;28;20751;-74
2022/03/08 03:10:12;;;;;;;19.40;12.40;;;-0.70;99.90;;;;;;5020153;28;20118;-75
2022/03/08 03:12:38;;;;;;;20.15;12.20;;;-0.60;99.90;;;;;;5025231;28;20752;-73
2022/03/08 03:15:07;;;;;;;19.98;12.25;;;-0.50;99.90;;;;;;5022161;28;20040;-73
2022/03/08 03:17:32;;;;;;;19.08;11.77;;;-0.50;99.90;;;;;;5014317;28;20132;-74
2022/03/08 03:19:58;;;;;;;19.67;12.30;;;-0.50;99.90;;;;;;5023703;28;20052;-73
2022/03/08 03:22:24;;;;;;;19.92;12.10;;;-0.60;99.90;;;;;;5009398;28;20044;-73
2022/03/08 03:24:50;;;;;;;18.33;12.10;;;-0.50;99.90;;;;;;5019790;28;20571;-74
2022/03/08 03:27:15;;;;;;;17.88;12.43;;;-0.40;99.90;;;;;;5024709;28;20053;-73
2022/03/08 03:29:41;;;;;;;19.40;12.90;;;-0.40;99.90;;;;;;5026866;28;20719;-74
2022/03/08 03:32:07;;;;;;;20.02;12.20;;;-0.50;99.90;;;;;;5011243;28;20033;-73
2022/03/08 03:34:33;;;;;;;16.45;11.40;;;-0.60;99.90;;;;;;5016784;28;20021;-74
2022/03/08 03:36:58;;;;;;;19.33;11.90;;;-0.70;99.90;;;;;;5018193;28;20025;-73
2022/03/08 03:39:24;;;;;;;18.58;12.07;;;-0.70;99.90;;;;;;5010831;28;20072;-73
2022/03/08 03:41:50;;;;;;;17.73;11.52;;;-0.80;99.90;;;;;;5016757;28;20553;-73
2022/03/08 03:44:16;;;;;;;17.45;10.82;;;-0.80;99.90;;;;;;5018013;28;20022;-73
2022/03/08 03:46:41;;;;;;;16.65;10.88;;;-1.00;99.90;;;;;;5019475;28;20126;-73
2022/03/08 03:49:07;;;;;;;17.58;11.48;;;-1.10;99.90;;;;;;5017129;28;20034;-73
2022/03/08 03:51:32;;;;;;;16.02;10.93;;;-1.10;99.90;;;;;;5016516;28;20156;-73
2022/03/08 03:53:58;;;;;;;16.73;11.10;;;-1.20;99.90;;;;;;5015936;28;20116;-73
2022/03/08 03:56:23;;;;;;;18.60;11.15;;;-1.40;99.90;;;;;;5030135;28;20172;-73
2022/03/08 03:58:49;;;;;;;16.95;11.40;;;-1.40;99.90;;;;;;5038111;28;20719;-73
2022/03/08 04:01:15;;;;;;;16.35;11.27;;;-1.40;99.90;;;;;;5030622;28;20025;-73
2022/03/08 04:03:41;;;;;;;16.70;10.40;;;-1.50;99.90;;;;;;5019850;28;20036;-73
2022/03/08 04:06:07;;;;;;;16.65;11.23;;;-1.60;99.90;;;;;;5034728;28;20200;-73
2022/03/08 04:08:33;;;;;;;17.35;11.18;;;-1.60;99.90;;;;;;5019069;28;20037;-73
2022/03/08 04:10:59;;;;;;;19.23;12.05;;;-1.60;99.90;;;;;;5029397;28;20022;-73
2022/03/08 04:13:24;;;;;;;17.58;11.00;;;-1.60;99.90;;;;;;5026648;28;20163;-73
2022/03/08 04:15:51;;;;;;;15.98;10.48;;;-1.70;99.90;;;;;;5028475;28;20052;-73
2022/03/08 04:18:17;;;;;;;21.20;12.35;;;-1.70;99.90;;;;;;5013979;28;20053;-73
2022/03/08 04:20:42;;;;;;;18.58;13.18;;;-1.70;99.90;;;;;;5039463;28;20523;-73
2022/03/08 04:23:08;;;;;;;19.98;12.98;;;-1.80;99.90;;;;;;5022846;28;20040;-73
2022/03/08 04:25:34;;;;;;;21.15;12.68;;;-1.70;99.90;;;;;;5025884;28;20030;-73
2022/03/08 04:28:02;;;;;;;21.40;12.93;;;-1.50;99.90;;;;;;5027125;28;20133;-73
2022/03/08 04:30:27;;;;;;;23.13;12.90;;;-1.30;99.90;;;;;;5038905;28;20030;-73
2022/03/08 04:32:54;;;;;;;19.70;12.60;;;-1.10;99.90;;;;;;5044390;28;20103;-74
2022/03/08 04:35:19;;;;;;;20.52;12.23;;;-1.10;99.90;;;;;;5039885;28;20021;-73
2022/03/08 04:37:46;;;;;;;21.40;12.82;;;-1.20;99.90;;;;;;5033270;28;20036;-73
2022/03/08 04:40:13;;;;;;;20.65;12.68;;;-1.40;99.90;;;;;;5045609;28;20026;-73
2022/03/08 04:42:40;;;;;;;20.33;12.68;;;-1.40;99.90;;;;;;5021672;28;20029;-73
2022/03/08 04:45:07;;;;;;;19.27;12.05;;;-1.40;99.90;;;;;;5021705;28;20037;-73
2022/03/08 04:47:37;;;;;;;18.77;12.88;;;-1.40;99.90;;;;;;5025422;28;20037;-74
2022/03/08 04:50:07;;;;;;;16.77;11.93;;;-1.40;99.90;;;;;;5023917;28;20029;-73
2022/03/08 04:52:33;;;;;;;17.73;10.98;;;-1.30;99.90;;;;;;5028145;28;20038;-73
2022/03/08 04:54:59;;;;;;;19.92;11.95;;;-1.20;99.90;;;;;;5026174;28;21323;-73
2022/03/08 04:57:25;;;;;;;20.17;12.18;;;-1.00;99.90;;;;;;5022644;28;20095;-73
2022/03/08 04:59:50;;;;;;;18.08;11.75;;;-0.90;99.90;;;;;;5012450;28;20497;-73
2022/03/08 05:02:16;;;;;;;16.95;11.43;;;-0.90;99.90;;;;;;5034516;28;20032;-73
2022/03/08 05:04:42;;;;;;;19.95;11.52;;;-0.80;99.90;;;;;;5025931;28;20552;-73
2022/03/08 05:07:07;;;;;;;19.35;11.85;;;-0.80;99.90;;;;;;5032169;28;20068;-73
2022/03/08 05:09:33;;;;;;;18.40;12.18;;;-0.80;99.90;;;;;;5029304;28;20029;-73
2022/03/08 05:11:59;;;;;;;18.55;11.75;;;;;;;;;;5029561;28;20390;-73
2022/03/08 05:14:25;;;;;;;19.65;12.68;;;;;;;;;;5024536;28;20030;-73
2022/03/08 05:16:52;;;;;;;19.80;13.18;;;;;;;;;;5023934;28;20025;-73
2022/03/08 05:19:18;;;;;;;18.85;12.07;;;;;;;;;;5010748;28;20037;-73
2022/03/08 05:21:44;;;;;;;20.95;12.45;;;;;;;;;;5022585;28;20029;-73
2022/03/08 05:24:10;;;;;;;18.75;12.15;;;;;;;;;;5025352;28;20046;-73
2022/03/08 05:26:40;;;;;;;23.85;12.85;;;;;;;;;;5022910;28;20038;-74
2022/03/08 05:29:06;;;;;;;21.42;12.80;;;;;;;;;;5028359;28;20134;-73
2022/03/08 05:31:32;;;;;;;18.20;11.80;;;;;;;;;;5019320;28;20038;-73
2022/03/08 05:33:58;;;;;;;17.33;11.80;;;;;;;;;;5009965;28;20484;-74
2022/03/08 05:36:25;;;;;;;18.63;11.68;;;;;;;;;;5020785;28;20037;-73
2022/03/08 05:38:51;;;;;;;19.65;12.60;;;;;;;;;;5031354;28;20555;-73
2022/03/08 05:41:17;;;;;;;22.75;12.65;;;;;;;;;;5032365;28;20073;-73
2022/03/08 05:43:43;;;;;;;19.02;12.60;;;;;;;;;;5027417;28;20069;-73
2022/03/08 05:46:08;;;;;;;22.05;13.52;;;;;;;;;;5016892;28;20052;-73
2022/03/08 05:48:34;;;;;;;21.20;12.93;;;;;;;;;;5018549;28;20030;-74
2022/03/08 05:51:00;;;;;;;21.40;12.77;;;;;;;;;;5017384;28;20088;-73
2022/03/08 05:53:26;;;;;;;19.75;13.10;;;;;;;;;;5033794;28;20074;-73
2022/03/08 05:55:52;;;;;;;22.55;14.02;;;;;;;;;;5041906;28;20202;-74
2022/03/08 05:58:18;;;;;;;21.55;14.45;;;;;;;;;;5023046;28;20035;-73
2022/03/08 06:00:44;;;;;;;23.85;13.63;;;;;;;;;;5022847;28;20037;-73
2022/03/08 06:03:10;;;;;;;20.75;13.55;;;;;;;;;;5028171;28;20094;-73
2022/03/08 06:05:37;;;;;;;23.58;14.10;;;;;;;;;;5012839;28;20041;-73
2022/03/08 06:08:03;;;;;;;24.80;14.57;;;;;;;;;;5017332;28;20150;-73
2022/03/08 06:10:29;;;;;;;22.85;14.20;;;;;;;;;;5026228;28;20048;-73
2022/03/08 06:12:55;;;;;;;24.02;13.77;;;;;;;;;;5013854;28;20038;-73
2022/03/08 06:15:21;;;;;;;20.73;13.90;;;;;;;;;;5024519;28;20544;-73
2022/03/08 06:17:47;;;;;;;21.52;14.05;;;;;;;;;;5018344;28;20070;-73
2022/03/08 06:20:14;;;;;;;21.23;13.55;;;;;;;;;;5024979;28;20064;-73
2022/03/08 06:22:40;;;;;;;20.83;14.02;;;;;;;;;;5014306;28;20660;-73
2022/03/08 06:25:06;;;;;;;23.90;15.35;;;;;;;;;;5021842;28;20057;-73
2022/03/08 06:27:33;;;;;;;24.17;14.48;;;;;;;;;;5021289;28;20077;-74
2022/03/08 06:29:59;;;;;;;28.70;15.57;;;;;;;;;;5022625;28;20030;-73
2022/03/08 06:32:25;;;;;;;24.33;14.45;;;;;;;;;;5004627;28;20052;-72
2022/03/08 06:34:51;;;;;;;27.30;15.80;;;;;;;;;;5018992;28;20115;-73
2022/03/08 06:37:17;;;;;;;25.70;14.75;;;;;;;;;;5024666;28;20041;-73
2022/03/08 06:39:43;;;;;;;22.00;14.20;;;;;;;;;;5021479;28;20034;-73
2022/03/08 06:42:09;;;;;;;24.50;15.05;;;;;;;;;;5018253;28;20091;-73
2022/03/08 06:44:38;;;;;;;27.20;15.85;;;;;;;;;;5021440;28;20113;-73
2022/03/08 06:47:04;;;;;;;24.27;15.35;;;;;;;;;;5021032;28;20477;-73
2022/03/08 06:49:30;;;;;;;21.92;14.48;;;;;;;;;;5015396;28;20046;-73
2022/03/08 06:51:56;;;;;;;24.30;15.63;;;;;;;;;;5011676;28;20461;-73
2022/03/08 06:54:22;;;;;;;22.52;15.07;;;;;;;;;;5009245;28;20112;-73
2022/03/08 06:56:48;;;;;;;23.48;15.73;;;;;;;;;;5022816;28;20050;-74
2022/03/08 06:59:14;;;;;;;23.67;14.52;;;;;;;;;;5017613;28;20096;-73
2022/03/08 07:01:40;;;;;;;21.63;13.88;;;;;;;;;;5015236;28;20038;-74
2022/03/08 07:04:06;;;;;;;22.42;14.50;;;;;;;;;;5022144;28;20033;-73
2022/03/08 07:06:32;;;;;;;21.65;13.50;;;;;;;;;;5029081;28;20672;-73
2022/03/08 07:08:58;;;;;;;24.23;14.65;;;;;;;;;;5018795;28;20044;-73
2022/03/08 07:11:24;;;;;;;21.65;14.18;;;;;;;;;;5015309;28;20104;-73
2022/03/08 07:13:51;;;;;;;27.02;15.00;;;;;;;;;;5014027;28;20587;-74
2022/03/08 07:16:18;;;;;;;23.95;14.75;;;;;;;;;;5022865;28;20025;-74
2022/03/08 07:18:44;;;;;;;27.20;15.82;;;;;;;;;;5014491;28;20473;-73
2022/03/08 07:21:10;;;;;;;24.25;15.68;;;;;;;;;;5025363;28;20179;-73
2022/03/08 07:23:36;;;;;;;30.98;17.48;;;;;;;;;;5013745;28;20490;-73
2022/03/08 07:26:01;;;;;;;27.15;17.38;;;;;;;;;;5015634;28;20037;-72
2022/03/08 07:28:27;;;;;;;28.63;17.30;;;;;;;;;;5035491;28;20607;-72
2022/03/08 07:30:53;;;;;;;30.67;18.00;;;;;;;;;;5015112;28;20029;-73
2022/03/08 07:33:19;;;;;;;30.75;18.15;;;;;;;;;;5025264;28;20029;-73
2022/03/08 07:35:46;;;;;;;31.65;19.33;;;;;;;;;;5018405;28;20083;-73
2022/03/08 07:38:12;;;;;;;35.17;20.02;;;;;;;;;;5023758;28;20029;-73
2022/03/08 07:40:38;;;;;;;31.50;18.83;;;;;;;;;;5026333;28;20472;-73
2022/03/08 07:43:04;;;;;;;34.13;19.05;;;;;;;;;;5029083;28;20161;-73
2022/03/08 07:45:30;;;;;;;30.52;18.95;;;;;;;;;;5016801;28;20518;-73
2022/03/08 07:47:57;;;;;;;36.35;21.02;;;;;;;;;;5018845;28;20041;-73
2022/03/08 07:50:22;;;;;;;33.00;19.05;;;;;;;;;;5014319;28;20057;-73
2022/03/08 07:52:49;;;;;;;29.98;17.92;;;;;;;;;;5009918;28;20092;-73
2022/03/08 07:55:15;;;;;;;27.77;17.80;;;;;;;;;;5017210;28;20025;-73
2022/03/08 07:57:41;;;;;;;28.98;17.25;;;;;;;;;;5017534;28;20037;-73
2022/03/08 08:00:08;;;;;;;26.60;16.25;;;;;;;;;;5016470;28;20088;-73
2022/03/08 08:02:34;;;;;;;30.15;16.63;;;;;;;;;;5015445;28;20029;-73
2022/03/08 08:05:00;;;;;;;29.60;18.25;;;;;;;;;;5022031;28;20033;-73
2022/03/08 08:07:26;;;;;;;34.10;21.80;;;;;;;;;;5018534;28;20039;-73
2022/03/08 08:09:52;;;;;;;32.78;21.02;;;;;;;;;;5023466;28;20524;-73
2022/03/08 08:12:18;;;;;;;37.28;20.15;;;;;;;;;;5023089;28;20025;-73
2022/03/08 08:14:44;;;;;;;38.30;21.73;;;;;;;;;;5028000;28;20080;-73
2022/03/08 08:17:10;;;;;;;36.15;21.90;;;;;;;;;;5024267;28;20103;-73
2022/03/08 08:19:36;;;;;;;36.20;21.45;;;;;;;;;;5023935;28;20473;-73
2022/03/08 08:22:02;;;;;;;37.35;20.75;;;;;;;;;;5016074;28;20025;-73
2022/03/08 08:24:28;;;;;;;28.15;18.13;;;;;;;;;;5014369;28;20056;-73
2022/03/08 08:26:54;;;;;;;28.75;17.50;;;;;;;;;;5027725;28;20102;-73
2022/03/08 08:29:20;;;;;;;27.05;18.02;;;;;;;;;;5013208;28;20466;-74
2022/03/08 08:31:46;;;;;;;27.33;17.27;;;;;;;;;;5009530;28;20021;-73
2022/03/08 08:34:12;;;;;;;25.58;16.45;;;;;;;;;;5030084;28;20483;-73
2022/03/08 08:36:38;;;;;;;24.75;16.33;;;;;;;;;;5026017;28;20021;-73
2022/03/08 08:39:04;;;;;;;27.85;17.80;;;;;;;;;;5025934;28;20119;-73
2022/03/08 08:41:30;;;;;;;28.10;17.30;;;;;;;;;;5027955;28;20041;-73
2022/03/08 08:43:56;;;;;;;25.95;16.73;;;;;;;;;;5024569;28;20159;-73
2022/03/08 08:46:22;;;;;;;29.08;17.17;;;;;;;;;;5018878;28;20442;-73
2022/03/08 08:48:49;;;;;;;28.38;16.38;;;;;;;;;;5013506;28;20029;-73
2022/03/08 08:51:15;;;;;;;24.70;15.90;;;;;;;;;;5014680;28;20080;-73
2022/03/08 08:53:40;;;;;;;26.42;16.90;;;3.00;99.90;;;;;;5024812;28;20029;-73
2022/03/08 08:56:06;;;;;;;26.35;16.35;;;3.00;99.90;;;;;;5028892;28;20056;-72
2022/03/08 08:58:31;;;;;;;24.48;16.35;;;3.10;99.90;;;;;;5022372;28;20043;-73
2022/03/08 09:00:57;;;;;;;24.50;16.17;;;3.20;99.90;;;;;;5034872;28;20469;-73
2022/03/08 09:03:23;;;;;;;23.75;15.10;;;3.30;99.90;;;;;;5013853;28;20116;-73
2022/03/08 09:05:48;;;;;;;24.65;16.13;;;3.40;99.90;;;;;;5018803;28;20117;-73
2022/03/08 09:08:14;;;;;;;24.48;16.23;;;3.50;99.90;;;;;;5026111;28;20029;-73
2022/03/08 09:10:40;;;;;;;26.55;17.38;;;3.60;99.90;;;;;;5029646;28;20018;-73
2022/03/08 09:13:06;;;;;;;26.88;18.20;;;3.70;99.90;;;;;;5014583;28;20040;-73
2022/03/08 09:15:32;;;;;;;24.85;17.65;;;3.80;99.90;;;;;;5016436;28;20025;-74
2022/03/08 09:17:58;;;;;;;31.13;19.20;;;4.00;99.90;;;;;;5018232;28;20486;-71
2022/03/08 09:20:26;;;;;;;28.77;17.60;;;4.00;99.90;;;;;;5022623;28;20022;-70
2022/03/08 09:22:53;;;;;;;29.23;17.38;;;4.10;99.90;;;;;;5023670;28;20068;-71
2022/03/08 09:25:19;;;;;;;25.70;18.02;;;4.10;99.90;;;;;;5027155;28;20033;-70
2022/03/08 09:27:45;;;;;;;29.67;17.95;;;4.20;99.90;;;;;;5020287;28;20054;-71
2022/03/08 09:30:11;;;;;;;25.08;16.67;;;4.30;99.90;;;;;;5022893;28;20034;-70
2022/03/08 09:32:37;;;;;;;25.52;16.67;;;4.30;99.90;;;;;;5012994;28;20025;-71
2022/03/08 09:35:03;;;;;;;26.65;17.05;;;4.50;99.90;;;;;;5040493;28;20026;-71
2022/03/08 09:37:28;;;;;;;24.45;16.42;;;4.60;99.90;;;;;;5014577;28;20037;-70
2022/03/08 09:39:54;;;;;;;25.10;16.45;;;4.90;99.90;;;;;;5017019;28;20088;-70
2022/03/08 09:42:21;;;;;;;23.08;15.32;;;4.90;99.90;;;;;;5015747;28;20084;-70
2022/03/08 09:44:48;;;;;;;21.77;14.63;;;5.00;99.90;;;;;;5023795;28;20040;-70
2022/03/08 09:47:18;;;;;;;17.02;11.90;;;5.20;99.90;;;;;;5021082;28;20434;-71
2022/03/08 09:49:45;;;;;;;18.33;12.70;;;5.30;99.90;;;;;;5017642;28;20033;-70
2022/03/08 09:52:11;;;;;;;17.92;12.00;;;5.50;99.90;;;;;;5010795;28;20065;-71
2022/03/08 09:54:36;;;;;;;15.68;11.77;;;5.80;99.90;;;;;;5019766;28;20036;-70
2022/03/08 09:57:10;;;;;;;14.82;10.15;;;5.80;99.90;;;;;;5016718;28;20515;-71
2022/03/08 09:59:36;;;;;;;23.70;9.23;;;6.00;99.90;;;;;;5026670;28;20034;-70
2022/03/08 10:02:02;;;;;;;14.82;9.50;;;6.10;99.90;;;;;;5015045;28;20040;-70
2022/03/08 10:04:27;;;;;;;13.35;9.90;;;6.10;99.90;;;;;;5014425;28;20042;-69
2022/03/08 10:06:53;;;;;;;11.52;9.10;;;6.20;99.90;;;;;;5024390;28;20040;-70
2022/03/08 10:09:21;;;;;;;12.02;9.43;;;6.30;99.90;;;;;;5024988;28;20064;-71
2022/03/08 10:11:51;;;;;;;12.82;9.57;;;6.40;99.90;;;;;;5011217;28;20022;-70
2022/03/08 10:14:38;;;;;;;13.73;9.38;;;6.60;99.90;;;;;;5010584;28;20037;-70
2022/03/08 10:17:06;;;;;;;11.50;9.18;;;6.70;99.90;;;;;;5015229;28;20037;-69
2022/03/08 10:19:46;;;;;;;11.00;8.77;;;6.90;99.90;;;;;;5029663;28;20154;-71
2022/03/08 10:22:25;;;;;;;15.95;10.45;;;7.00;99.90;;;;;;5010979;28;20210;-71
2022/03/08 10:24:51;;;;;;;14.63;9.60;;;7.10;99.90;;;;;;5022049;28;20055;-71
2022/03/08 10:27:18;;;;;;;13.77;9.05;;;7.20;99.90;;;;;;5020392;28;20064;-71
2022/03/08 10:29:48;;;;;;;13.27;8.80;;;7.30;99.90;;;;;;5024909;28;20033;-71
2022/03/08 10:32:19;;;;;;;11.15;8.82;;;7.40;99.90;;;;;;5014189;28;20083;-71
2022/03/08 10:34:47;;;;;;;13.38;8.18;;;7.40;99.30;;;;;;5028141;28;20030;-70
2022/03/08 10:37:20;;;;;;;12.75;7.85;;;7.50;99.80;;;;;;5029872;28;20029;-70
2022/03/08 10:39:51;;;;;;;12.55;7.93;;;7.40;98.90;;;;;;5013825;28;20031;-70
2022/03/08 10:42:21;;;;;;;10.52;7.93;;;7.40;98.80;;;;;;5013118;28;20032;-70
2022/03/08 10:44:48;;;;;;;11.55;8.60;;;7.50;99.30;;;;;;5018170;28;20017;-71
2022/03/08 10:47:14;;;;;;;10.38;7.32;;;7.50;99.60;;;;;;5016032;28;20021;-70
2022/03/08 10:49:54;;;;;;;8.13;5.97;;;7.50;99.40;;;;;;5012784;28;23755;-71
2022/03/08 10:52:27;;;;;;;7.78;5.28;;;7.50;96.90;;;;;;5016013;28;20442;-71
2022/03/08 10:54:54;;;;;;;9.45;5.63;;;7.60;96.20;;;;;;5014419;28;20152;-71
2022/03/08 10:57:19;;;;;;;5.55;4.75;;;7.70;94.30;;;;;;5013752;28;20018;-70
2022/03/08 10:59:55;;;;;;;7.63;5.30;;;7.70;93.00;;;;;;5031348;28;20381;-71
2022/03/08 11:02:22;;;;;;;7.60;4.95;;;7.80;93.00;;;;;;5014791;28;20563;-70
2022/03/08 11:04:48;;;;;;;7.13;5.35;;;7.90;91.00;;;;;;5020402;28;20041;-69
2022/03/08 11:07:14;;;;;;;7.93;5.60;;;7.90;91.00;;;;;;5033456;28;20021;-71
2022/03/08 11:09:41;;;;;;;7.53;4.97;;;8.00;91.10;;;;;;5021549;28;20703;-71
2022/03/08 11:12:07;;;;;;;6.03;4.60;;;8.00;90.20;;;;;;5020441;28;20520;-70
2022/03/08 11:14:34;;;;;;;5.85;4.13;;;8.00;85.90;;;;;;5015400;28;20052;-71
2022/03/08 11:17:00;;;;;;;5.90;4.25;;;8.00;85.90;;;;;;5010124;28;20029;-71
2022/03/08 11:19:28;;;;;;;6.90;4.90;;;8.10;86.70;;;;;;5026804;28;20607;-71
2022/03/08 11:21:56;;;;;;;5.65;4.40;;;8.20;85.50;;;;;;5014647;28;20061;-71
2022/03/08 11:24:23;;;;;;;7.07;4.30;;;8.30;84.20;;;;;;5010695;28;20499;-71
2022/03/08 11:26:50;;;;;;;7.13;4.25;;;8.40;84.90;;;;;;5022153;28;20551;-71
2022/03/08 11:29:17;;;;;;;4.65;4.05;;;8.60;82.40;;;;;;5019307;28;20099;-71
2022/03/08 11:31:46;;;;;;;5.25;4.32;;;8.70;82.50;;;;;;5024215;28;20028;-71
2022/03/08 11:34:35;;;;;;;6.72;4.85;;;8.80;81.50;;;;;;5017914;28;20279;-70
2022/03/08 11:37:14;;;;;;;7.32;4.88;;;8.90;79.60;;;;;;5028953;28;20037;-71
2022/03/08 11:39:43;;;;;;;7.47;4.68;;;8.90;78.50;;;;;;5026058;28;20037;-71
2022/03/08 11:42:20;;;;;;;10.35;7.43;;;8.90;79.80;;;;;;5018538;28;20424;-70
2022/03/08 11:45:06;;;;;;;7.03;5.60;;;9.00;80.20;;;;;;5010758;28;20029;-71
2022/03/08 11:47:53;;;;;;;6.82;5.22;;;8.90;78.60;;;;;;5014602;28;20112;-71
2022/03/08 11:50:39;;;;;;;10.13;6.15;;;8.90;79.00;;;;;;5010113;28;20037;-72
2022/03/08 11:53:09;;;;;;;8.75;6.32;;;9.00;79.00;;;;;;5019928;28;20034;-71
2022/03/08 11:55:56;;;;;;;8.27;5.72;;;9.10;78.30;;;;;;5023400;28;20060;-72
2022/03/08 11:58:41;;;;;;;10.43;6.07;;;9.20;79.00;;;;;;5025688;28;20041;-72
2022/03/08 12:01:07;;;;;;;8.85;6.40;;;9.30;79.10;;;;;;5016490;28;20388;-71
2022/03/08 12:03:37;;;;;;;8.38;6.15;;;9.30;78.30;;;;;;5009511;28;20117;-72
2022/03/08 12:06:03;;;;;;;10.02;6.55;;;9.40;79.00;;;;;;5028528;28;20033;-72
2022/03/08 12:08:29;;;;;;;10.27;6.68;;;9.40;80.20;;;;;;5026645;28;20113;-72
2022/03/08 12:11:04;;;;;;;9.57;7.07;;;9.50;78.10;;;;;;5012832;28;20033;-72
2022/03/08 12:13:33;;;;;;;8.57;6.13;;;9.60;77.40;;;;;;5024033;28;20036;-71
2022/03/08 12:16:10;;;;;;;7.72;5.70;;;9.70;76.40;;;;;;5013797;28;20113;-72
2022/03/08 12:18:40;;;;;;;7.80;5.75;;;9.70;75.90;;;;;;5024509;28;20041;-72
2022/03/08 12:21:14;;;;;;;8.63;5.72;;;9.70;75.70;;;;;;5020840;28;20036;-72
2022/03/08 12:24:09;;;;;;;7.55;5.53;;;9.80;74.10;;;;;;5018450;28;20021;-71
2022/03/08 12:26:50;;;;;;;6.05;4.57;;;9.80;73.60;;;;;;5022218;28;20038;-71
2022/03/08 12:29:25;;;;;;;8.40;4.88;;;10.00;71.80;;;;;;5019778;28;20037;-71
2022/03/08 12:32:04;;;;;;;5.63;4.35;;;10.00;70.40;;;;;;5028140;28;20211;-71
2022/03/08 12:34:40;;;;;;;5.78;4.70;;;9.90;68.70;;;;;;5021887;28;20044;-71
2022/03/08 12:37:19;;;;;;;7.13;3.83;;;9.90;68.50;;;;;;5016065;28;20105;-71
2022/03/08 12:40:12;;;;;;;5.13;3.88;;;9.90;67.90;;;;;;5018038;28;20029;-71
2022/03/08 12:42:57;;;;;;;5.43;4.18;;;10.20;65.10;;;;;;5016860;28;20032;-71
2022/03/08 12:45:48;;;;;;;5.80;4.10;;;10.20;65.00;;;;;;5014868;28;20432;-71
2022/03/08 12:48:19;;;;;;;6.30;4.20;;;10.30;65.60;;;;;;5022538;28;20030;-71
2022/03/08 12:50:54;;;;;;;4.00;3.60;;;10.40;63.60;;;;;;5021427;28;20055;-72
2022/03/08 12:53:25;;;;;;;6.20;3.80;;;10.40;64.90;;;;;;5007329;28;20083;-71
2022/03/08 12:55:56;;;;;;;5.68;3.90;;;10.40;64.90;;;;;;5012961;28;20045;-71
2022/03/08 12:58:27;;;;;;;5.07;3.60;;;10.40;65.00;;;;;;5021199;28;20520;-71
2022/03/08 13:00:54;;;;;;;5.93;4.10;;;10.40;61.40;;;;;;5011912;28;20036;-71
2022/03/08 13:03:22;;;;;;;5.78;4.30;;;10.30;61.10;;;;;;5030761;28;20112;-72
2022/03/08 13:05:54;;;;;;;5.22;4.05;;;10.30;60.90;;;;;;5020146;28;20038;-83
2022/03/08 13:08:21;;;;;;;8.50;4.67;;;10.40;60.80;;;;;;5023277;28;20265;-82